createdAt,value
2022-12-29T00:01:18.918Z,6.50
2022-12-29T00:03:48.616Z,6.60
2022-12-29T00:06:16.777Z,6.60
2022-12-29T00:08:44.787Z,6.60
2022-12-29T00:11:15.026Z,6.60
2022-12-29T00:14:01.852Z,6.70
2022-12-29T00:16:31.386Z,6.90
2022-12-29T00:18:59.678Z,6.80
2022-12-29T00:21:45.368Z,6.80
2022-12-29T00:24:34.054Z,6.80
2022-12-29T00:27:30.618Z,6.80
2022-12-29T00:30:17.857Z,6.80
2022-12-29T00:33:03.532Z,6.80
2022-12-29T00:35:34.207Z,6.70
2022-12-29T00:38:24.308Z,6.70
2022-12-29T00:41:21.267Z,6.70
2022-12-29T00:44:07.694Z,6.70
2022-12-29T00:46:38.328Z,6.60
2022-12-29T00:49:24.380Z,6.70
2022-12-29T00:51:52.924Z,6.70
2022-12-29T00:54:22.328Z,6.60
2022-12-29T00:56:50.771Z,6.60
2022-12-29T00:59:19.967Z,6.60
2022-12-29T01:01:49.899Z,6.60
2022-12-29T01:04:18.048Z,6.50
2022-12-29T01:06:46.787Z,6.50
2022-12-29T01:09:41.321Z,6.50
2022-12-29T01:12:11.213Z,6.50
2022-12-29T01:14:39.656Z,6.40
2022-12-29T01:17:09.203Z,6.40
2022-12-29T01:19:37.718Z,6.40
2022-12-29T01:22:05.623Z,6.30
2022-12-29T01:24:33.674Z,6.30
2022-12-29T01:27:02.281Z,6.30
2022-12-29T01:29:30.295Z,6.40
2022-12-29T01:31:58.412Z,6.50
2022-12-29T01:34:27.666Z,6.60
2022-12-29T01:36:55.706Z,6.60
2022-12-29T01:39:23.840Z,6.50
2022-12-29T01:41:51.879Z,6.70
2022-12-29T01:44:52.667Z,6.70
2022-12-29T01:47:30.726Z,6.70
2022-12-29T01:50:04.395Z,6.60
2022-12-29T01:52:35.180Z,6.60
2022-12-29T01:55:04.263Z,6.60
2022-12-29T01:57:36.657Z,6.70
2022-12-29T02:00:09.214Z,6.80
2022-12-29T02:02:37.569Z,6.80
2022-12-29T02:05:13.579Z,6.70
2022-12-29T02:07:43.092Z,6.70
2022-12-29T02:10:11.182Z,6.60
2022-12-29T02:12:39.310Z,6.60
2022-12-29T02:15:08.818Z,6.60
2022-12-29T02:17:50.631Z,6.60
2022-12-29T02:20:50.965Z,6.70
2022-12-29T02:23:44.944Z,6.70
2022-12-29T02:26:50.296Z,6.70
2022-12-29T02:29:44.764Z,6.70
2022-12-29T02:32:24.220Z,6.70
2022-12-29T02:34:59.474Z,6.80
2022-12-29T02:37:33.274Z,6.80
2022-12-29T02:40:08.673Z,6.80
2022-12-29T02:42:43.924Z,6.70
2022-12-29T02:45:18.640Z,6.80
2022-12-29T02:47:53.072Z,6.90
2022-12-29T02:50:25.541Z,7.00
2022-12-29T02:52:56.852Z,7.00
2022-12-29T02:55:23.775Z,7.00
2022-12-29T02:58:06.602Z,7.00
2022-12-29T03:00:38.492Z,7.00
2022-12-29T03:03:22.450Z,7.10
2022-12-29T03:06:11.109Z,7.10
2022-12-29T03:08:50.416Z,7.20
2022-12-29T03:11:36.249Z,7.20
2022-12-29T03:14:28.138Z,7.30
2022-12-29T03:16:59.475Z,7.30
2022-12-29T03:19:33.102Z,7.40
2022-12-29T03:22:23.856Z,7.40
2022-12-29T03:24:56.668Z,7.40
2022-12-29T03:27:29.734Z,7.50
2022-12-29T03:30:01.576Z,7.50
2022-12-29T03:32:34.272Z,7.60
2022-12-29T03:35:04.826Z,7.60
2022-12-29T03:37:39.005Z,7.70
2022-12-29T03:40:08.442Z,7.80
2022-12-29T03:42:38.579Z,7.80
2022-12-29T03:45:08.401Z,7.80
2022-12-29T03:47:36.663Z,7.90
2022-12-29T03:50:07.105Z,7.90
2022-12-29T03:52:35.660Z,8.00
2022-12-29T03:55:03.542Z,7.90
2022-12-29T03:57:31.925Z,8.00
2022-12-29T03:59:59.884Z,8.10
2022-12-29T04:02:27.880Z,8.10
2022-12-29T04:04:56.132Z,8.10
2022-12-29T04:07:25.567Z,8.10
2022-12-29T04:09:53.690Z,8.00
2022-12-29T04:12:21.586Z,8.00
2022-12-29T04:14:49.492Z,8.10
2022-12-29T04:17:17.614Z,8.20
2022-12-29T04:19:46.428Z,8.20
2022-12-29T04:22:14.472Z,8.10
2022-12-29T04:24:43.762Z,8.20
2022-12-29T04:27:11.806Z,8.20
2022-12-29T04:29:39.825Z,8.20
2022-12-29T04:32:07.751Z,8.20
2022-12-29T04:34:35.789Z,8.30
2022-12-29T04:37:03.677Z,8.20
2022-12-29T04:39:31.556Z,8.30
2022-12-29T04:42:01.235Z,8.30
2022-12-29T04:44:29.608Z,8.30
2022-12-29T04:46:57.638Z,8.30
2022-12-29T04:49:25.565Z,8.30
2022-12-29T04:51:53.605Z,8.30
2022-12-29T04:54:21.511Z,8.40
2022-12-29T04:56:49.439Z,8.40
2022-12-29T04:59:18.929Z,8.30
2022-12-29T05:01:47.016Z,8.40
2022-12-29T05:04:15.133Z,8.40
2022-12-29T05:06:43.019Z,8.30
2022-12-29T05:09:11.161Z,8.40
2022-12-29T05:11:39.167Z,8.40
2022-12-29T05:14:07.164Z,8.40
2022-12-29T05:16:37.084Z,8.40
2022-12-29T05:19:05.084Z,8.40
2022-12-29T05:21:33.243Z,8.30
2022-12-29T05:24:01.455Z,8.30
2022-12-29T05:26:29.396Z,8.30
2022-12-29T05:28:57.504Z,8.40
2022-12-29T05:31:25.477Z,8.40
2022-12-29T05:33:54.877Z,8.40
2022-12-29T05:36:22.965Z,8.40
2022-12-29T05:38:50.944Z,8.40
2022-12-29T05:41:19.011Z,8.50
2022-12-29T05:43:46.965Z,8.50
2022-12-29T05:46:14.985Z,8.50
2022-12-29T05:48:43.414Z,8.50
2022-12-29T05:51:12.862Z,8.50
2022-12-29T05:53:40.806Z,8.50
2022-12-29T05:56:09.271Z,8.50
2022-12-29T05:58:37.134Z,8.50
2022-12-29T06:01:05.397Z,8.50
2022-12-29T06:03:33.425Z,8.40
2022-12-29T06:06:01.647Z,8.50
2022-12-29T06:08:30.935Z,8.40
2022-12-29T06:10:58.858Z,8.50
2022-12-29T06:13:26.997Z,8.50
2022-12-29T06:15:55.121Z,8.60
2022-12-29T06:18:23.175Z,8.60
2022-12-29T06:20:51.058Z,8.60
2022-12-29T06:23:19.771Z,8.60
2022-12-29T06:25:50.429Z,8.60
2022-12-29T06:28:18.501Z,8.60
2022-12-29T06:30:47.216Z,8.70
2022-12-29T06:33:15.451Z,8.70
2022-12-29T06:35:44.752Z,8.70
2022-12-29T06:38:12.677Z,8.70
2022-12-29T06:40:42.352Z,8.70
2022-12-29T06:43:11.585Z,8.70
2022-12-29T06:45:40.397Z,8.70
2022-12-29T06:48:09.614Z,8.70
2022-12-29T06:50:37.830Z,8.70
2022-12-29T06:53:06.144Z,8.60
2022-12-29T06:55:34.269Z,8.60
2022-12-29T06:58:03.000Z,8.60
2022-12-29T07:00:32.328Z,8.50
2022-12-29T07:03:00.527Z,8.50
2022-12-29T07:05:29.305Z,8.50
2022-12-29T07:07:57.644Z,8.50
2022-12-29T07:10:25.784Z,8.50
2022-12-29T07:12:53.857Z,8.50
2022-12-29T07:15:21.773Z,8.50
2022-12-29T07:17:51.510Z,8.40
2022-12-29T07:20:26.320Z,8.40
2022-12-29T07:22:55.003Z,8.50
2022-12-29T07:25:23.009Z,8.50
2022-12-29T07:27:51.495Z,8.40
2022-12-29T07:30:19.618Z,8.40
2022-12-29T07:32:47.698Z,8.50
2022-12-29T07:35:17.071Z,8.50
2022-12-29T07:37:45.764Z,8.50
2022-12-29T07:40:14.232Z,8.50
2022-12-29T07:42:42.245Z,8.60
2022-12-29T07:45:11.631Z,8.50
2022-12-29T07:47:39.824Z,8.60
2022-12-29T07:50:08.594Z,8.60
2022-12-29T07:52:38.011Z,8.60
2022-12-29T07:55:06.617Z,8.70
2022-12-29T07:57:34.782Z,8.70
2022-12-29T08:00:03.580Z,9.00
2022-12-29T08:02:31.704Z,9.40
2022-12-29T08:04:59.634Z,9.80
2022-12-29T08:07:27.777Z,10.40
2022-12-29T08:09:57.051Z,10.70
2022-12-29T08:12:25.207Z,11.00
2022-12-29T08:14:53.266Z,11.20
2022-12-29T08:17:21.208Z,11.50
2022-12-29T08:19:49.118Z,11.50
2022-12-29T08:22:17.741Z,11.50
2022-12-29T08:24:45.607Z,11.60
2022-12-29T08:27:20.363Z,11.60
2022-12-29T08:29:49.415Z,11.50
2022-12-29T08:32:17.936Z,11.30
2022-12-29T08:34:46.013Z,11.30
2022-12-29T08:37:14.005Z,11.30
2022-12-29T08:39:41.929Z,11.30
2022-12-29T08:42:09.948Z,11.40
2022-12-29T08:44:39.272Z,11.50
2022-12-29T08:47:07.460Z,11.90
2022-12-29T08:49:35.430Z,11.90
2022-12-29T08:52:03.656Z,11.90
2022-12-29T08:54:31.973Z,11.80
2022-12-29T08:56:59.914Z,11.70
2022-12-29T08:59:28.158Z,11.50
2022-12-29T09:01:57.497Z,11.50
2022-12-29T09:04:28.354Z,11.40
2022-12-29T09:06:57.017Z,11.40
2022-12-29T09:09:24.975Z,11.40
2022-12-29T09:11:53.029Z,11.50
2022-12-29T09:14:22.556Z,12.00
2022-12-29T09:17:10.772Z,12.40
2022-12-29T09:19:40.066Z,12.70
2022-12-29T09:22:08.136Z,12.70
2022-12-29T09:24:36.005Z,12.70
2022-12-29T09:27:04.075Z,12.70
2022-12-29T09:29:32.148Z,12.70
2022-12-29T09:32:00.116Z,12.60
2022-12-29T09:34:28.209Z,12.60
2022-12-29T09:36:58.534Z,12.60
2022-12-29T09:39:26.598Z,12.70
2022-12-29T09:42:03.407Z,12.90
2022-12-29T09:44:47.046Z,13.00
2022-12-29T09:47:18.559Z,13.00
2022-12-29T09:49:50.524Z,13.10
2022-12-29T09:52:23.754Z,13.00
2022-12-29T09:55:02.381Z,12.90
2022-12-29T09:57:36.627Z,12.90
2022-12-29T10:00:09.294Z,12.90
2022-12-29T10:02:41.423Z,12.90
2022-12-29T10:05:28.544Z,12.80
2022-12-29T10:08:15.818Z,12.80
2022-12-29T10:10:52.693Z,12.70
2022-12-29T10:13:31.007Z,12.60
2022-12-29T10:16:07.239Z,12.50
2022-12-29T10:19:02.287Z,12.50
2022-12-29T10:21:41.774Z,12.40
2022-12-29T10:24:14.426Z,12.50
2022-12-29T10:26:44.589Z,12.60
2022-12-29T10:29:19.774Z,12.60
2022-12-29T10:31:52.973Z,12.60
2022-12-29T10:34:24.291Z,12.70
2022-12-29T10:36:57.877Z,12.70
2022-12-29T10:39:35.032Z,12.80
2022-12-29T10:42:10.982Z,12.70
2022-12-29T10:44:39.496Z,12.90
2022-12-29T10:47:12.402Z,13.20
2022-12-29T10:49:44.404Z,13.40
2022-12-29T10:52:13.924Z,13.40
2022-12-29T10:54:49.764Z,13.50
2022-12-29T10:57:29.257Z,13.50
2022-12-29T10:59:57.582Z,13.60
2022-12-29T11:02:52.405Z,13.70
2022-12-29T11:05:25.734Z,13.90
2022-12-29T11:08:00.092Z,14.20
2022-12-29T11:10:40.807Z,14.40
2022-12-29T11:13:14.988Z,14.60
2022-12-29T11:15:44.400Z,15.20
2022-12-29T11:18:23.320Z,15.70
2022-12-29T11:20:53.047Z,16.30
2022-12-29T11:23:27.291Z,17.20
2022-12-29T11:26:19.083Z,18.30
2022-12-29T11:28:48.404Z,18.20
2022-12-29T11:31:21.420Z,17.70
2022-12-29T11:33:49.369Z,17.20
2022-12-29T11:36:21.968Z,16.80
2022-12-29T11:38:52.027Z,16.60
2022-12-29T11:41:26.736Z,16.30
2022-12-29T11:43:57.697Z,16.10
2022-12-29T11:46:56.974Z,15.90
2022-12-29T11:49:27.137Z,15.60
2022-12-29T11:51:57.887Z,15.40
2022-12-29T11:54:30.844Z,15.40
2022-12-29T11:57:01.379Z,15.40
2022-12-29T11:59:55.944Z,15.30
2022-12-29T12:02:43.037Z,15.10
2022-12-29T12:05:28.141Z,15.00
2022-12-29T12:08:01.749Z,14.90
2022-12-29T12:10:33.807Z,14.80
2022-12-29T12:13:13.591Z,14.60
2022-12-29T12:15:50.083Z,14.50
2022-12-29T12:18:25.698Z,14.40
2022-12-29T12:20:59.072Z,14.40
2022-12-29T12:23:40.668Z,14.30
2022-12-29T12:26:15.840Z,14.20
2022-12-29T12:28:51.742Z,14.10
2022-12-29T12:31:30.092Z,14.10
2022-12-29T12:34:03.298Z,14.20
2022-12-29T12:36:49.451Z,14.30
2022-12-29T12:39:27.939Z,14.20
2022-12-29T12:42:08.614Z,14.20
2022-12-29T12:44:52.625Z,14.20
2022-12-29T12:47:37.100Z,14.10
2022-12-29T12:50:29.465Z,14.10
2022-12-29T12:53:16.933Z,14.10
2022-12-29T12:56:05.700Z,14.00
2022-12-29T12:58:41.136Z,14.10
2022-12-29T13:01:26.027Z,14.10
2022-12-29T13:04:09.472Z,14.00
2022-12-29T13:06:47.362Z,14.10
2022-12-29T13:09:38.734Z,14.10
2022-12-29T13:12:15.927Z,14.10
2022-12-29T13:14:57.104Z,14.20
2022-12-29T13:17:35.065Z,14.30
2022-12-29T13:20:14.954Z,14.30
2022-12-29T13:22:50.935Z,14.30
2022-12-29T13:25:28.819Z,14.40
2022-12-29T13:28:02.900Z,14.30
2022-12-29T13:30:35.642Z,14.30
2022-12-29T13:33:21.285Z,14.40
2022-12-29T13:35:59.241Z,14.40
2022-12-29T13:38:32.374Z,14.40
2022-12-29T13:41:05.738Z,14.30
2022-12-29T13:43:37.669Z,14.40
2022-12-29T13:46:10.063Z,14.40
2022-12-29T13:48:45.500Z,14.30
2022-12-29T13:51:14.393Z,14.30
2022-12-29T13:53:57.100Z,14.30
2022-12-29T13:56:32.356Z,14.20
2022-12-29T13:59:06.582Z,14.20
2022-12-29T14:01:38.431Z,14.20
2022-12-29T14:04:15.903Z,14.20
2022-12-29T14:06:46.196Z,14.10
2022-12-29T14:09:42.952Z,14.10
2022-12-29T14:12:35.137Z,14.10
2022-12-29T14:15:16.867Z,14.10
2022-12-29T14:17:45.786Z,14.00
2022-12-29T14:20:23.274Z,14.00
2022-12-29T14:23:02.929Z,14.00
2022-12-29T14:25:59.461Z,14.00
2022-12-29T14:28:29.337Z,14.00
2022-12-29T14:30:59.062Z,13.90
2022-12-29T14:33:29.870Z,13.90
2022-12-29T14:36:19.721Z,13.80
2022-12-29T14:38:49.047Z,13.80
2022-12-29T14:41:28.603Z,13.70
2022-12-29T14:44:00.624Z,13.70
2022-12-29T14:46:47.768Z,13.70
2022-12-29T14:49:20.624Z,13.70
2022-12-29T14:51:52.271Z,13.60
2022-12-29T14:54:51.703Z,13.50
2022-12-29T14:57:30.905Z,13.50
2022-12-29T15:00:03.909Z,13.50
2022-12-29T15:02:39.545Z,13.50
2022-12-29T15:05:21.851Z,13.50
2022-12-29T15:07:51.749Z,13.50
2022-12-29T15:10:23.977Z,13.30
2022-12-29T15:12:54.979Z,13.20
2022-12-29T15:15:25.078Z,13.30
2022-12-29T15:17:53.902Z,13.20
2022-12-29T15:20:28.018Z,13.20
2022-12-29T15:22:59.750Z,13.10
2022-12-29T15:25:28.456Z,13.10
2022-12-29T15:27:59.373Z,13.00
2022-12-29T15:30:27.669Z,12.90
2022-12-29T15:32:55.609Z,12.90
2022-12-29T15:35:30.870Z,12.70
2022-12-29T15:38:01.132Z,12.60
2022-12-29T15:40:31.890Z,12.50
2022-12-29T15:43:19.089Z,12.50
2022-12-29T15:45:47.150Z,12.40
2022-12-29T15:48:20.327Z,12.40
2022-12-29T15:50:48.969Z,12.30
2022-12-29T15:53:29.473Z,12.40
2022-12-29T15:56:03.487Z,12.30
2022-12-29T15:58:33.193Z,12.20
2022-12-29T16:01:03.038Z,12.20
2022-12-29T16:03:35.118Z,12.20
2022-12-29T16:06:11.903Z,12.00
2022-12-29T16:08:42.526Z,12.00
2022-12-29T16:11:23.174Z,12.10
2022-12-29T16:13:52.730Z,12.00
2022-12-29T16:16:27.015Z,11.90
2022-12-29T16:18:57.945Z,11.90
2022-12-29T16:21:29.930Z,12.00
2022-12-29T16:24:03.653Z,11.90
2022-12-29T16:26:31.819Z,12.00
2022-12-29T16:29:01.817Z,12.00
2022-12-29T16:31:36.802Z,12.00
2022-12-29T16:34:15.361Z,11.90
2022-12-29T16:36:55.371Z,11.80
2022-12-29T16:39:35.578Z,11.80
2022-12-29T16:42:23.866Z,11.70
2022-12-29T16:45:08.657Z,11.70
2022-12-29T16:47:36.664Z,11.70
2022-12-29T16:50:20.248Z,11.70
2022-12-29T16:52:52.026Z,11.70
2022-12-29T16:55:21.480Z,11.70
2022-12-29T16:57:51.570Z,11.70
2022-12-29T17:00:23.485Z,11.70
2022-12-29T17:02:54.103Z,11.80
2022-12-29T17:05:22.202Z,11.70
2022-12-29T17:07:50.156Z,11.80
2022-12-29T17:10:18.445Z,11.80
2022-12-29T17:12:49.878Z,11.80
2022-12-29T17:15:26.014Z,11.70
2022-12-29T17:17:56.262Z,11.60
2022-12-29T17:20:26.710Z,11.60
2022-12-29T17:22:55.270Z,11.60
2022-12-29T17:25:26.614Z,11.50
2022-12-29T17:27:58.189Z,11.60
2022-12-29T17:30:33.932Z,11.60
2022-12-29T17:33:05.222Z,11.50
2022-12-29T17:35:33.553Z,11.50
2022-12-29T17:38:01.973Z,11.50
2022-12-29T17:40:32.504Z,11.50
2022-12-29T17:43:01.543Z,11.40
2022-12-29T17:45:32.768Z,11.40
2022-12-29T17:48:02.122Z,11.40
2022-12-29T17:50:32.538Z,11.40
2022-12-29T17:53:03.820Z,11.50
2022-12-29T17:55:37.677Z,11.40
2022-12-29T17:58:18.236Z,11.40
2022-12-29T18:00:48.600Z,11.40
2022-12-29T18:03:17.924Z,11.40
2022-12-29T18:05:46.284Z,11.40
2022-12-29T18:08:14.356Z,11.40
2022-12-29T18:10:43.024Z,11.40
2022-12-29T18:13:21.150Z,11.40
2022-12-29T18:15:50.807Z,11.30
2022-12-29T18:18:21.231Z,11.20
2022-12-29T18:20:51.039Z,11.20
2022-12-29T18:23:21.367Z,11.20
2022-12-29T18:25:53.162Z,11.10
2022-12-29T18:28:21.248Z,11.10
2022-12-29T18:30:50.952Z,11.10
2022-12-29T18:33:23.407Z,11.10
2022-12-29T18:35:56.181Z,11.20
2022-12-29T18:38:24.439Z,11.10
2022-12-29T18:40:56.238Z,11.10
2022-12-29T18:43:24.710Z,11.10
2022-12-29T18:45:54.219Z,11.10
2022-12-29T18:48:22.882Z,11.00
2022-12-29T18:50:52.092Z,11.00
2022-12-29T18:53:22.106Z,11.10
2022-12-29T18:55:50.419Z,11.10
2022-12-29T18:58:18.622Z,11.10
2022-12-29T19:00:47.963Z,11.10
2022-12-29T19:03:19.427Z,11.10
2022-12-29T19:05:49.054Z,11.10
2022-12-29T19:08:16.975Z,11.10
2022-12-29T19:10:46.153Z,11.10
2022-12-29T19:13:17.640Z,11.20
2022-12-29T19:15:46.950Z,11.20
2022-12-29T19:21:09.340Z,11.30
2022-12-29T19:23:37.396Z,11.30
2022-12-29T19:26:05.344Z,11.30
2022-12-29T19:28:33.496Z,11.30
2022-12-29T19:31:04.441Z,11.30
2022-12-29T19:33:33.889Z,11.30
2022-12-29T19:36:03.102Z,11.20
2022-12-29T19:38:31.013Z,11.20
2022-12-29T19:40:59.180Z,11.10
2022-12-29T19:43:27.254Z,11.00
2022-12-29T19:45:55.369Z,11.00
2022-12-29T19:48:23.417Z,11.00
2022-12-29T19:50:52.828Z,10.90
2022-12-29T19:53:20.924Z,11.00
2022-12-29T19:55:49.268Z,11.00
2022-12-29T19:58:17.209Z,11.10
2022-12-29T20:00:45.195Z,11.00
2022-12-29T20:03:13.470Z,11.10
2022-12-29T20:05:41.598Z,11.00
2022-12-29T20:08:11.031Z,11.10
2022-12-29T20:10:39.101Z,11.10
2022-12-29T20:13:07.632Z,11.10
2022-12-29T20:15:35.538Z,11.00
2022-12-29T20:18:13.869Z,11.10
2022-12-29T20:20:43.100Z,11.10
2022-12-29T20:30:57.517Z,10.90
2022-12-29T20:33:25.657Z,10.90
2022-12-29T20:35:53.731Z,10.80
2022-12-29T20:38:22.230Z,10.90
2022-12-29T20:40:50.150Z,10.90
2022-12-29T20:43:18.102Z,10.90
2022-12-29T20:45:46.392Z,10.90
2022-12-29T20:48:15.757Z,10.90
2022-12-29T20:50:43.883Z,10.90
2022-12-29T20:53:12.653Z,10.80
2022-12-29T20:55:41.441Z,10.80
2022-12-29T20:58:25.607Z,10.80
2022-12-29T21:00:54.469Z,10.80
2022-12-29T21:03:24.571Z,10.80
2022-12-29T21:05:54.145Z,10.70
2022-12-29T21:08:22.423Z,10.70
2022-12-29T21:10:51.407Z,10.70
2022-12-29T21:13:19.921Z,10.80
2022-12-29T21:15:48.225Z,10.70
2022-12-29T21:18:16.574Z,10.70
2022-12-29T21:20:45.790Z,10.70
2022-12-29T21:23:14.073Z,10.70
2022-12-29T21:25:44.910Z,10.70
2022-12-29T21:28:13.115Z,10.70
2022-12-29T21:30:42.112Z,10.80
2022-12-29T21:33:10.257Z,10.80
2022-12-29T21:35:39.432Z,10.80
2022-12-29T21:38:09.345Z,10.70
2022-12-29T21:40:38.765Z,10.70
2022-12-29T21:43:07.174Z,10.70
2022-12-29T21:45:34.663Z,10.70
2022-12-29T21:48:24.082Z,10.70
2022-12-29T21:51:11.262Z,10.70
2022-12-29T21:53:42.838Z,10.70
2022-12-29T21:56:12.999Z,10.80
2022-12-29T21:59:00.338Z,10.80
2022-12-29T22:01:48.329Z,10.80
2022-12-29T22:04:35.724Z,10.70
2022-12-29T22:07:22.054Z,10.60
2022-12-29T22:10:09.651Z,10.50
2022-12-29T22:12:55.276Z,10.60
2022-12-29T22:15:23.555Z,10.60
2022-12-29T22:17:53.633Z,10.50
2022-12-29T22:20:23.276Z,10.40
2022-12-29T22:22:51.171Z,10.50
2022-12-29T22:25:21.104Z,10.40
2022-12-29T22:27:53.006Z,10.40
2022-12-29T22:30:23.671Z,10.40
2022-12-29T22:32:51.933Z,10.40
2022-12-29T22:35:19.957Z,10.40
2022-12-29T22:37:48.062Z,10.30
2022-12-29T22:40:16.050Z,10.30
2022-12-29T22:42:45.706Z,10.30
2022-12-29T22:45:13.784Z,10.30
2022-12-29T22:47:41.700Z,10.30
2022-12-29T22:50:10.453Z,10.30
2022-12-29T22:52:38.528Z,10.30
2022-12-29T22:55:08.382Z,10.30
2022-12-29T22:57:36.901Z,10.30
2022-12-29T23:00:09.324Z,10.30
2022-12-29T23:02:37.463Z,10.30
2022-12-29T23:05:07.042Z,10.30
2022-12-29T23:07:36.401Z,10.30
2022-12-29T23:10:05.739Z,10.20
2022-12-29T23:12:34.137Z,10.20
2022-12-29T23:15:02.049Z,10.20
